sensor_id;sensor_type;location;lat;lon;timestamp;temperature;humidity
7588;DHT22;3835;48.850;8.938;2023-08-31T00:00:42;12.20;99.90
7588;DHT22;3835;48.850;8.938;2023-08-31T00:03:10;12.20;99.90
7588;DHT22;3835;48.850;8.938;2023-08-31T00:05:37;12.10;99.90
7588;DHT22;3835;48.850;8.938;2023-08-31T00:08:06;12.00;99.90
7588;DHT22;3835;48.850;8.938;2023-08-31T00:10:34;11.90;99.90
7588;DHT22;3835;48.850;8.938;2023-08-31T00:13:01;11.90;99.90
7588;DHT22;3835;48.850;8.938;2023-08-31T00:15:28;11.80;99.90
7588;DHT22;3835;48.850;8.938;2023-08-31T00:17:58;11.70;99.90
7588;DHT22;3835;48.850;8.938;2023-08-31T00:20:25;11.70;99.90
7588;DHT22;3835;48.850;8.938;2023-08-31T00:22:52;11.60;99.90
7588;DHT22;3835;48.850;8.938;2023-08-31T00:25:19;11.60;99.90
7588;DHT22;3835;48.850;8.938;2023-08-31T00:27:47;11.60;99.90
7588;DHT22;3835;48.850;8.938;2023-08-31T00:30:14;11.50;99.90
7588;DHT22;3835;48.850;8.938;2023-08-31T00:32:41;11.50;99.90
7588;DHT22;3835;48.850;8.938;2023-08-31T00:35:08;11.50;99.90
7588;DHT22;3835;48.850;8.938;2023-08-31T00:37:35;11.40;99.90
7588;DHT22;3835;48.850;8.938;2023-08-31T00:40:02;11.40;99.90
7588;DHT22;3835;48.850;8.938;2023-08-31T00:42:30;11.30;99.90
7588;DHT22;3835;48.850;8.938;2023-08-31T00:44:59;11.30;99.90
7588;DHT22;3835;48.850;8.938;2023-08-31T00:47:26;11.30;99.90
7588;DHT22;3835;48.850;8.938;2023-08-31T00:49:53;11.40;99.90
7588;DHT22;3835;48.850;8.938;2023-08-31T00:52:20;11.40;99.90
7588;DHT22;3835;48.850;8.938;2023-08-31T00:54:47;11.40;99.90
7588;DHT22;3835;48.850;8.938;2023-08-31T00:57:14;11.50;99.90
7588;DHT22;3835;48.850;8.938;2023-08-31T00:59:41;11.50;99.90
7588;DHT22;3835;48.850;8.938;2023-08-31T01:02:13;11.40;99.90
7588;DHT22;3835;48.850;8.938;2023-08-31T01:04:48;11.40;99.90
7588;DHT22;3835;48.850;8.938;2023-08-31T01:07:23;11.40;99.90
7588;DHT22;3835;48.850;8.938;2023-08-31T01:09:57;11.20;99.90
7588;DHT22;3835;48.850;8.938;2023-08-31T01:12:35;11.20;99.90
7588;DHT22;3835;48.850;8.938;2023-08-31T01:15:04;11.20;99.90
7588;DHT22;3835;48.850;8.938;2023-08-31T01:17:39;11.10;99.90
7588;DHT22;3835;48.850;8.938;2023-08-31T01:20:09;11.00;99.90
7588;DHT22;3835;48.850;8.938;2023-08-31T01:22:39;11.00;99.90
7588;DHT22;3835;48.850;8.938;2023-08-31T01:25:08;11.00;99.90
7588;DHT22;3835;48.850;8.938;2023-08-31T01:27:35;11.00;99.90
7588;DHT22;3835;48.850;8.938;2023-08-31T01:30:04;11.00;99.90
7588;DHT22;3835;48.850;8.938;2023-08-31T01:32:31;11.00;99.90
7588;DHT22;3835;48.850;8.938;2023-08-31T01:34:58;11.00;99.90
7588;DHT22;3835;48.850;8.938;2023-08-31T01:37:31;11.00;99.90
7588;DHT22;3835;48.850;8.938;2023-08-31T01:40:05;11.00;99.90
7588;DHT22;3835;48.850;8.938;2023-08-31T01:42:34;11.10;99.90
7588;DHT22;3835;48.850;8.938;2023-08-31T01:45:02;11.10;99.90
7588;DHT22;3835;48.850;8.938;2023-08-31T01:47:30;11.10;99.90
7588;DHT22;3835;48.850;8.938;2023-08-31T01:49:57;11.20;99.90
7588;DHT22;3835;48.850;8.938;2023-08-31T01:52:24;11.30;99.90
7588;DHT22;3835;48.850;8.938;2023-08-31T01:54:51;11.30;99.90
7588;DHT22;3835;48.850;8.938;2023-08-31T01:57:18;11.30;99.90
7588;DHT22;3835;48.850;8.938;2023-08-31T01:59:46;11.40;99.90
7588;DHT22;3835;48.850;8.938;2023-08-31T02:02:13;11.40;99.90
7588;DHT22;3835;48.850;8.938;2023-08-31T02:04:42;11.50;99.90
7588;DHT22;3835;48.850;8.938;2023-08-31T02:07:09;11.50;99.90
7588;DHT22;3835;48.850;8.938;2023-08-31T02:09:35;11.60;99.90
7588;DHT22;3835;48.850;8.938;2023-08-31T02:12:03;11.50;99.90
7588;DHT22;3835;48.850;8.938;2023-08-31T02:14:29;11.60;99.90
7588;DHT22;3835;48.850;8.938;2023-08-31T02:16:58;11.60;99.90
7588;DHT22;3835;48.850;8.938;2023-08-31T02:19:24;11.60;99.90
7588;DHT22;3835;48.850;8.938;2023-08-31T02:21:51;11.60;99.90
7588;DHT22;3835;48.850;8.938;2023-08-31T02:24:18;11.60;99.90
7588;DHT22;3835;48.850;8.938;2023-08-31T02:26:45;11.60;99.90
7588;DHT22;3835;48.850;8.938;2023-08-31T02:29:11;11.50;99.90
7588;DHT22;3835;48.850;8.938;2023-08-31T02:31:38;11.50;99.90
7588;DHT22;3835;48.850;8.938;2023-08-31T02:34:06;11.50;99.90
7588;DHT22;3835;48.850;8.938;2023-08-31T02:36:33;11.50;99.90
7588;DHT22;3835;48.850;8.938;2023-08-31T02:39:00;11.50;99.90
7588;DHT22;3835;48.850;8.938;2023-08-31T02:41:27;11.50;99.90
7588;DHT22;3835;48.850;8.938;2023-08-31T02:43:53;11.50;99.90
7588;DHT22;3835;48.850;8.938;2023-08-31T02:46:20;11.50;99.90
7588;DHT22;3835;48.850;8.938;2023-08-31T02:48:48;11.50;99.90
7588;DHT22;3835;48.850;8.938;2023-08-31T02:51:16;11.50;99.90
7588;DHT22;3835;48.850;8.938;2023-08-31T02:53:43;11.60;99.90
7588;DHT22;3835;48.850;8.938;2023-08-31T02:56:10;11.60;99.90
7588;DHT22;3835;48.850;8.938;2023-08-31T02:58:37;11.60;99.90
7588;DHT22;3835;48.850;8.938;2023-08-31T03:01:08;11.60;99.90
7588;DHT22;3835;48.850;8.938;2023-08-31T03:03:36;11.60;99.90
7588;DHT22;3835;48.850;8.938;2023-08-31T03:06:03;11.60;99.90
7588;DHT22;3835;48.850;8.938;2023-08-31T03:08:32;11.60;99.90
7588;DHT22;3835;48.850;8.938;2023-08-31T03:10:59;11.60;99.90
7588;DHT22;3835;48.850;8.938;2023-08-31T03:13:26;11.50;99.90
7588;DHT22;3835;48.850;8.938;2023-08-31T03:15:52;11.50;99.90
7588;DHT22;3835;48.850;8.938;2023-08-31T03:18:19;11.40;99.90
7588;DHT22;3835;48.850;8.938;2023-08-31T03:20:46;11.40;99.90
7588;DHT22;3835;48.850;8.938;2023-08-31T03:23:12;11.40;99.90
7588;DHT22;3835;48.850;8.938;2023-08-31T03:25:41;11.30;99.90
7588;DHT22;3835;48.850;8.938;2023-08-31T03:28:08;11.30;99.90
7588;DHT22;3835;48.850;8.938;2023-08-31T03:30:35;11.20;99.90
7588;DHT22;3835;48.850;8.938;2023-08-31T03:33:02;11.20;99.90
7588;DHT22;3835;48.850;8.938;2023-08-31T03:35:31;11.20;99.90
7588;DHT22;3835;48.850;8.938;2023-08-31T03:37:57;11.20;99.90
7588;DHT22;3835;48.850;8.938;2023-08-31T03:40:24;11.20;99.90
7588;DHT22;3835;48.850;8.938;2023-08-31T03:42:52;11.20;99.90
7588;DHT22;3835;48.850;8.938;2023-08-31T03:45:19;11.20;99.90
7588;DHT22;3835;48.850;8.938;2023-08-31T03:47:46;11.20;99.90
7588;DHT22;3835;48.850;8.938;2023-08-31T03:50:13;11.20;99.90
7588;DHT22;3835;48.850;8.938;2023-08-31T03:52:40;11.30;99.90
7588;DHT22;3835;48.850;8.938;2023-08-31T03:55:07;11.30;99.90
7588;DHT22;3835;48.850;8.938;2023-08-31T03:57:34;11.30;99.90
7588;DHT22;3835;48.850;8.938;2023-08-31T04:00:02;11.30;99.90
7588;DHT22;3835;48.850;8.938;2023-08-31T04:02:34;11.30;99.90
7588;DHT22;3835;48.850;8.938;2023-08-31T04:05:01;11.30;99.90
7588;DHT22;3835;48.850;8.938;2023-08-31T04:07:30;11.30;99.90
7588;DHT22;3835;48.850;8.938;2023-08-31T04:09:57;11.30;99.90
7588;DHT22;3835;48.850;8.938;2023-08-31T04:12:24;11.30;99.90
7588;DHT22;3835;48.850;8.938;2023-08-31T04:14:51;11.30;99.90
7588;DHT22;3835;48.850;8.938;2023-08-31T04:17:19;11.30;99.90
7588;DHT22;3835;48.850;8.938;2023-08-31T04:19:46;11.30;99.90
7588;DHT22;3835;48.850;8.938;2023-08-31T04:22:12;11.30;99.90
7588;DHT22;3835;48.850;8.938;2023-08-31T04:24:39;11.30;99.90
7588;DHT22;3835;48.850;8.938;2023-08-31T04:27:06;11.30;99.90
7588;DHT22;3835;48.850;8.938;2023-08-31T04:29:33;11.30;99.90
7588;DHT22;3835;48.850;8.938;2023-08-31T04:32:01;11.30;99.90
7588;DHT22;3835;48.850;8.938;2023-08-31T04:34:29;11.30;99.90
7588;DHT22;3835;48.850;8.938;2023-08-31T04:36:56;11.30;99.90
7588;DHT22;3835;48.850;8.938;2023-08-31T04:39:23;11.30;99.90
7588;DHT22;3835;48.850;8.938;2023-08-31T04:41:49;11.30;99.90
7588;DHT22;3835;48.850;8.938;2023-08-31T04:44:16;11.30;99.90
7588;DHT22;3835;48.850;8.938;2023-08-31T04:46:43;11.20;99.90
7588;DHT22;3835;48.850;8.938;2023-08-31T04:49:10;11.30;99.90
7588;DHT22;3835;48.850;8.938;2023-08-31T04:51:38;11.20;99.90
7588;DHT22;3835;48.850;8.938;2023-08-31T04:54:07;11.30;99.90
7588;DHT22;3835;48.850;8.938;2023-08-31T04:56:34;11.30;99.90
7588;DHT22;3835;48.850;8.938;2023-08-31T04:59:01;11.30;99.90
7588;DHT22;3835;48.850;8.938;2023-08-31T05:01:28;11.30;99.90
7588;DHT22;3835;48.850;8.938;2023-08-31T05:03:55;11.40;99.90
7588;DHT22;3835;48.850;8.938;2023-08-31T05:06:22;11.40;99.90
7588;DHT22;3835;48.850;8.938;2023-08-31T05:08:50;11.50;99.90
7588;DHT22;3835;48.850;8.938;2023-08-31T05:11:17;11.50;99.90
7588;DHT22;3835;48.850;8.938;2023-08-31T05:13:44;11.50;99.90
7588;DHT22;3835;48.850;8.938;2023-08-31T05:16:11;11.50;99.90
7588;DHT22;3835;48.850;8.938;2023-08-31T05:18:38;11.60;99.90
7588;DHT22;3835;48.850;8.938;2023-08-31T05:21:06;11.70;99.90
7588;DHT22;3835;48.850;8.938;2023-08-31T05:23:33;11.80;99.90
7588;DHT22;3835;48.850;8.938;2023-08-31T05:26:01;11.90;99.90
7588;DHT22;3835;48.850;8.938;2023-08-31T05:28:28;12.00;99.90
7588;DHT22;3835;48.850;8.938;2023-08-31T05:31:17;12.10;99.90
7588;DHT22;3835;48.850;8.938;2023-08-31T05:37:18;12.30;99.90
7588;DHT22;3835;48.850;8.938;2023-08-31T05:39:47;12.30;99.90
7588;DHT22;3835;48.850;8.938;2023-08-31T05:42:15;12.30;99.90
7588;DHT22;3835;48.850;8.938;2023-08-31T05:44:43;12.30;99.90
7588;DHT22;3835;48.850;8.938;2023-08-31T05:47:10;12.30;99.90
7588;DHT22;3835;48.850;8.938;2023-08-31T05:49:37;12.30;99.90
7588;DHT22;3835;48.850;8.938;2023-08-31T05:52:09;12.40;99.90
7588;DHT22;3835;48.850;8.938;2023-08-31T05:54:36;12.50;99.90
7588;DHT22;3835;48.850;8.938;2023-08-31T05:57:03;12.60;99.90
7588;DHT22;3835;48.850;8.938;2023-08-31T05:59:32;12.60;99.90
7588;DHT22;3835;48.850;8.938;2023-08-31T06:01:59;12.70;99.90
7588;DHT22;3835;48.850;8.938;2023-08-31T06:04:26;12.90;99.90
7588;DHT22;3835;48.850;8.938;2023-08-31T06:06:52;13.10;99.90
7588;DHT22;3835;48.850;8.938;2023-08-31T06:09:19;13.30;99.90
7588;DHT22;3835;48.850;8.938;2023-08-31T06:11:46;13.40;99.90
7588;DHT22;3835;48.850;8.938;2023-08-31T06:14:13;13.50;99.90
7588;DHT22;3835;48.850;8.938;2023-08-31T06:16:41;13.70;99.90
7588;DHT22;3835;48.850;8.938;2023-08-31T06:19:09;13.80;99.90
7588;DHT22;3835;48.850;8.938;2023-08-31T06:21:36;13.90;99.90
7588;DHT22;3835;48.850;8.938;2023-08-31T06:24:03;14.10;99.90
7588;DHT22;3835;48.850;8.938;2023-08-31T06:26:32;14.10;99.90
7588;DHT22;3835;48.850;8.938;2023-08-31T06:28:59;14.20;99.90
7588;DHT22;3835;48.850;8.938;2023-08-31T06:31:25;14.30;99.90
7588;DHT22;3835;48.850;8.938;2023-08-31T06:33:54;14.40;99.90
7588;DHT22;3835;48.850;8.938;2023-08-31T06:36:20;14.60;99.90
7588;DHT22;3835;48.850;8.938;2023-08-31T06:38:47;14.60;99.90
7588;DHT22;3835;48.850;8.938;2023-08-31T06:41:14;14.60;99.90
7588;DHT22;3835;48.850;8.938;2023-08-31T06:43:41;14.80;99.90
7588;DHT22;3835;48.850;8.938;2023-08-31T06:46:08;15.20;99.90
7588;DHT22;3835;48.850;8.938;2023-08-31T06:48:34;15.30;99.90
7588;DHT22;3835;48.850;8.938;2023-08-31T06:51:03;15.30;99.90
7588;DHT22;3835;48.850;8.938;2023-08-31T06:53:29;15.10;99.90
7588;DHT22;3835;48.850;8.938;2023-08-31T06:55:56;15.10;99.90
7588;DHT22;3835;48.850;8.938;2023-08-31T06:58:23;15.20;99.90
7588;DHT22;3835;48.850;8.938;2023-08-31T07:00:50;15.20;99.90
7588;DHT22;3835;48.850;8.938;2023-08-31T07:03:17;15.10;99.90
7588;DHT22;3835;48.850;8.938;2023-08-31T07:05:43;15.30;99.90
7588;DHT22;3835;48.850;8.938;2023-08-31T07:08:12;15.60;99.90
7588;DHT22;3835;48.850;8.938;2023-08-31T07:10:38;15.70;99.90
7588;DHT22;3835;48.850;8.938;2023-08-31T07:13:05;15.70;99.90
7588;DHT22;3835;48.850;8.938;2023-08-31T07:15:32;16.00;99.90
7588;DHT22;3835;48.850;8.938;2023-08-31T07:17:59;16.20;99.90
7588;DHT22;3835;48.850;8.938;2023-08-31T07:20:26;16.40;99.90
7588;DHT22;3835;48.850;8.938;2023-08-31T07:22:52;16.50;99.90
7588;DHT22;3835;48.850;8.938;2023-08-31T07:25:21;16.70;99.90
7588;DHT22;3835;48.850;8.938;2023-08-31T07:27:48;16.70;99.90
7588;DHT22;3835;48.850;8.938;2023-08-31T07:30:15;16.70;99.90
7588;DHT22;3835;48.850;8.938;2023-08-31T07:32:41;16.80;99.90
7588;DHT22;3835;48.850;8.938;2023-08-31T07:35:08;16.80;99.90
7588;DHT22;3835;48.850;8.938;2023-08-31T07:37:35;17.10;99.90
7588;DHT22;3835;48.850;8.938;2023-08-31T07:40:03;17.20;99.90
7588;DHT22;3835;48.850;8.938;2023-08-31T07:42:35;17.30;99.90
7588;DHT22;3835;48.850;8.938;2023-08-31T07:45:02;17.30;99.90
7588;DHT22;3835;48.850;8.938;2023-08-31T07:47:29;17.30;99.90
7588;DHT22;3835;48.850;8.938;2023-08-31T07:49:55;17.50;99.90
7588;DHT22;3835;48.850;8.938;2023-08-31T07:52:22;17.30;99.90
7588;DHT22;3835;48.850;8.938;2023-08-31T07:54:49;16.90;99.90
7588;DHT22;3835;48.850;8.938;2023-08-31T07:57:16;16.30;99.90
7588;DHT22;3835;48.850;8.938;2023-08-31T07:59:44;15.90;99.90
7588;DHT22;3835;48.850;8.938;2023-08-31T08:02:10;15.70;99.90
7588;DHT22;3835;48.850;8.938;2023-08-31T08:04:37;15.50;99.90
7588;DHT22;3835;48.850;8.938;2023-08-31T08:07:04;15.40;99.90
7588;DHT22;3835;48.850;8.938;2023-08-31T08:09:31;15.50;99.90
7588;DHT22;3835;48.850;8.938;2023-08-31T08:11:57;15.70;99.90
7588;DHT22;3835;48.850;8.938;2023-08-31T08:14:24;15.90;99.90
7588;DHT22;3835;48.850;8.938;2023-08-31T08:16:52;15.70;99.90
7588;DHT22;3835;48.850;8.938;2023-08-31T08:19:22;16.00;99.90
7588;DHT22;3835;48.850;8.938;2023-08-31T08:21:49;16.30;99.90
7588;DHT22;3835;48.850;8.938;2023-08-31T08:24:16;16.40;99.90
7588;DHT22;3835;48.850;8.938;2023-08-31T08:26:43;16.60;99.90
7588;DHT22;3835;48.850;8.938;2023-08-31T08:29:10;17.00;99.90
7588;DHT22;3835;48.850;8.938;2023-08-31T08:31:36;17.20;99.90
7588;DHT22;3835;48.850;8.938;2023-08-31T08:34:04;17.30;99.90
7588;DHT22;3835;48.850;8.938;2023-08-31T08:36:31;17.50;99.90
7588;DHT22;3835;48.850;8.938;2023-08-31T08:38:58;17.70;99.90
7588;DHT22;3835;48.850;8.938;2023-08-31T08:41:28;17.70;99.90
7588;DHT22;3835;48.850;8.938;2023-08-31T08:43:57;17.90;99.90
7588;DHT22;3835;48.850;8.938;2023-08-31T08:46:30;18.10;99.90
7588;DHT22;3835;48.850;8.938;2023-08-31T08:48:58;17.80;99.90
7588;DHT22;3835;48.850;8.938;2023-08-31T08:51:27;17.90;99.90
7588;DHT22;3835;48.850;8.938;2023-08-31T08:53:56;17.70;99.90
7588;DHT22;3835;48.850;8.938;2023-08-31T08:56:25;17.80;99.90
7588;DHT22;3835;48.850;8.938;2023-08-31T08:58:52;17.70;99.90
7588;DHT22;3835;48.850;8.938;2023-08-31T09:01:19;18.10;99.90
7588;DHT22;3835;48.850;8.938;2023-08-31T09:03:48;17.80;99.90
7588;DHT22;3835;48.850;8.938;2023-08-31T09:06:15;17.80;99.90
7588;DHT22;3835;48.850;8.938;2023-08-31T09:08:43;17.50;99.90
7588;DHT22;3835;48.850;8.938;2023-08-31T09:11:19;17.30;99.90
7588;DHT22;3835;48.850;8.938;2023-08-31T09:13:48;17.40;99.90
7588;DHT22;3835;48.850;8.938;2023-08-31T09:16:24;17.40;99.90
7588;DHT22;3835;48.850;8.938;2023-08-31T09:18:52;17.40;99.90
7588;DHT22;3835;48.850;8.938;2023-08-31T09:21:18;17.30;99.90
7588;DHT22;3835;48.850;8.938;2023-08-31T09:23:55;17.40;99.90
7588;DHT22;3835;48.850;8.938;2023-08-31T09:26:22;17.40;99.90
7588;DHT22;3835;48.850;8.938;2023-08-31T09:28:49;17.40;99.90
7588;DHT22;3835;48.850;8.938;2023-08-31T09:31:16;17.40;99.90
7588;DHT22;3835;48.850;8.938;2023-08-31T09:33:50;16.90;99.90
7588;DHT22;3835;48.850;8.938;2023-08-31T09:36:17;16.60;99.90
7588;DHT22;3835;48.850;8.938;2023-08-31T09:38:45;16.70;99.90
7588;DHT22;3835;48.850;8.938;2023-08-31T09:41:13;16.70;99.90
7588;DHT22;3835;48.850;8.938;2023-08-31T09:43:40;16.80;99.90
7588;DHT22;3835;48.850;8.938;2023-08-31T09:46:09;16.80;99.90
7588;DHT22;3835;48.850;8.938;2023-08-31T09:48:36;16.90;99.90
7588;DHT22;3835;48.850;8.938;2023-08-31T09:51:04;16.90;99.90
7588;DHT22;3835;48.850;8.938;2023-08-31T09:53:31;17.10;99.90
7588;DHT22;3835;48.850;8.938;2023-08-31T09:55:59;17.40;99.90
7588;DHT22;3835;48.850;8.938;2023-08-31T09:58:28;17.70;99.90
7588;DHT22;3835;48.850;8.938;2023-08-31T10:00:56;17.80;99.90
7588;DHT22;3835;48.850;8.938;2023-08-31T10:03:25;17.50;99.90
7588;DHT22;3835;48.850;8.938;2023-08-31T10:05:54;17.00;99.90
7588;DHT22;3835;48.850;8.938;2023-08-31T10:08:22;16.50;99.90
7588;DHT22;3835;48.850;8.938;2023-08-31T10:10:50;16.40;99.90
7588;DHT22;3835;48.850;8.938;2023-08-31T10:13:18;16.50;99.90
7588;DHT22;3835;48.850;8.938;2023-08-31T10:15:49;16.60;99.90
7588;DHT22;3835;48.850;8.938;2023-08-31T10:18:16;16.90;99.90
7588;DHT22;3835;48.850;8.938;2023-08-31T10:20:43;17.40;99.90
7588;DHT22;3835;48.850;8.938;2023-08-31T10:23:11;17.50;99.90
7588;DHT22;3835;48.850;8.938;2023-08-31T10:25:59;17.40;99.90
7588;DHT22;3835;48.850;8.938;2023-08-31T10:28:27;17.70;99.90
7588;DHT22;3835;48.850;8.938;2023-08-31T10:31:02;18.00;99.90
7588;DHT22;3835;48.850;8.938;2023-08-31T10:33:31;18.20;99.90
7588;DHT22;3835;48.850;8.938;2023-08-31T10:35:58;18.40;99.90
7588;DHT22;3835;48.850;8.938;2023-08-31T10:38:27;18.50;99.90
7588;DHT22;3835;48.850;8.938;2023-08-31T10:43:46;18.30;99.90
7588;DHT22;3835;48.850;8.938;2023-08-31T10:46:33;18.20;99.90
7588;DHT22;3835;48.850;8.938;2023-08-31T10:49:01;17.70;99.90
7588;DHT22;3835;48.850;8.938;2023-08-31T10:51:30;17.80;99.90
7588;DHT22;3835;48.850;8.938;2023-08-31T10:54:11;18.00;99.90
7588;DHT22;3835;48.850;8.938;2023-08-31T10:57:04;18.20;99.90
7588;DHT22;3835;48.850;8.938;2023-08-31T10:59:46;18.20;99.90
7588;DHT22;3835;48.850;8.938;2023-08-31T11:02:33;18.40;99.90
7588;DHT22;3835;48.850;8.938;2023-08-31T11:05:02;18.20;99.90
7588;DHT22;3835;48.850;8.938;2023-08-31T11:07:32;18.30;99.90
7588;DHT22;3835;48.850;8.938;2023-08-31T11:10:12;18.30;99.90
7588;DHT22;3835;48.850;8.938;2023-08-31T11:12:39;18.40;99.90
7588;DHT22;3835;48.850;8.938;2023-08-31T11:15:08;18.80;99.90
7588;DHT22;3835;48.850;8.938;2023-08-31T11:17:37;19.30;99.90
7588;DHT22;3835;48.850;8.938;2023-08-31T11:20:07;19.70;99.90
7588;DHT22;3835;48.850;8.938;2023-08-31T11:22:38;19.60;99.90
7588;DHT22;3835;48.850;8.938;2023-08-31T11:25:06;18.90;99.90
7588;DHT22;3835;48.850;8.938;2023-08-31T11:27:33;18.70;99.90
7588;DHT22;3835;48.850;8.938;2023-08-31T11:30:00;18.60;99.90
7588;DHT22;3835;48.850;8.938;2023-08-31T11:32:26;18.70;99.90
7588;DHT22;3835;48.850;8.938;2023-08-31T11:34:55;18.80;99.90
7588;DHT22;3835;48.850;8.938;2023-08-31T11:37:21;19.20;99.90
7588;DHT22;3835;48.850;8.938;2023-08-31T11:39:49;19.40;99.90
7588;DHT22;3835;48.850;8.938;2023-08-31T11:42:17;19.70;99.90
7588;DHT22;3835;48.850;8.938;2023-08-31T11:44:45;19.40;99.90
7588;DHT22;3835;48.850;8.938;2023-08-31T11:47:13;18.90;99.90
7588;DHT22;3835;48.850;8.938;2023-08-31T11:49:40;18.50;99.90
7588;DHT22;3835;48.850;8.938;2023-08-31T11:52:09;18.50;99.90
7588;DHT22;3835;48.850;8.938;2023-08-31T11:54:37;18.80;99.90
7588;DHT22;3835;48.850;8.938;2023-08-31T11:57:06;18.90;99.90
7588;DHT22;3835;48.850;8.938;2023-08-31T11:59:35;19.00;99.90
7588;DHT22;3835;48.850;8.938;2023-08-31T12:02:04;19.20;99.90
7588;DHT22;3835;48.850;8.938;2023-08-31T12:04:31;19.30;99.90
7588;DHT22;3835;48.850;8.938;2023-08-31T12:07:01;19.20;99.90
7588;DHT22;3835;48.850;8.938;2023-08-31T12:09:31;19.10;99.90
7588;DHT22;3835;48.850;8.938;2023-08-31T12:11:58;19.10;99.90
7588;DHT22;3835;48.850;8.938;2023-08-31T12:14:26;19.30;99.90
7588;DHT22;3835;48.850;8.938;2023-08-31T12:17:02;19.60;99.90
7588;DHT22;3835;48.850;8.938;2023-08-31T12:19:30;19.80;99.90
7588;DHT22;3835;48.850;8.938;2023-08-31T12:21:57;19.80;99.90
7588;DHT22;3835;48.850;8.938;2023-08-31T12:24:24;19.90;99.90
7588;DHT22;3835;48.850;8.938;2023-08-31T12:26:52;19.70;99.90
7588;DHT22;3835;48.850;8.938;2023-08-31T12:29:20;19.70;99.90
7588;DHT22;3835;48.850;8.938;2023-08-31T12:31:47;19.70;99.90
7588;DHT22;3835;48.850;8.938;2023-08-31T12:34:15;19.60;99.90
7588;DHT22;3835;48.850;8.938;2023-08-31T12:36:42;19.50;99.90
7588;DHT22;3835;48.850;8.938;2023-08-31T12:39:08;19.30;99.90
7588;DHT22;3835;48.850;8.938;2023-08-31T12:41:36;19.00;99.90
7588;DHT22;3835;48.850;8.938;2023-08-31T12:44:04;18.70;99.90
7588;DHT22;3835;48.850;8.938;2023-08-31T12:46:31;18.40;99.90
7588;DHT22;3835;48.850;8.938;2023-08-31T12:48:59;18.50;99.90
7588;DHT22;3835;48.850;8.938;2023-08-31T12:51:26;18.80;99.90
7588;DHT22;3835;48.850;8.938;2023-08-31T12:53:53;19.00;99.90
7588;DHT22;3835;48.850;8.938;2023-08-31T12:56:19;19.10;99.90
7588;DHT22;3835;48.850;8.938;2023-08-31T12:58:49;19.20;99.90
7588;DHT22;3835;48.850;8.938;2023-08-31T13:01:17;19.40;99.90
7588;DHT22;3835;48.850;8.938;2023-08-31T13:03:44;19.30;99.90
7588;DHT22;3835;48.850;8.938;2023-08-31T13:06:11;19.30;99.90
7588;DHT22;3835;48.850;8.938;2023-08-31T13:08:38;19.40;99.90
7588;DHT22;3835;48.850;8.938;2023-08-31T13:11:04;19.50;99.90
7588;DHT22;3835;48.850;8.938;2023-08-31T13:13:32;19.70;99.90
7588;DHT22;3835;48.850;8.938;2023-08-31T13:15:59;19.70;99.90
7588;DHT22;3835;48.850;8.938;2023-08-31T13:18:27;19.70;99.90
7588;DHT22;3835;48.850;8.938;2023-08-31T13:20:55;19.60;99.90
7588;DHT22;3835;48.850;8.938;2023-08-31T13:23:22;19.50;99.90
7588;DHT22;3835;48.850;8.938;2023-08-31T13:25:49;19.50;99.90
7588;DHT22;3835;48.850;8.938;2023-08-31T13:28:17;19.90;99.90
7588;DHT22;3835;48.850;8.938;2023-08-31T13:30:43;20.00;99.90
7588;DHT22;3835;48.850;8.938;2023-08-31T13:33:10;20.20;99.90
7588;DHT22;3835;48.850;8.938;2023-08-31T13:35:38;20.20;99.90
7588;DHT22;3835;48.850;8.938;2023-08-31T13:38:05;19.90;99.90
7588;DHT22;3835;48.850;8.938;2023-08-31T13:40:34;19.80;99.90
7588;DHT22;3835;48.850;8.938;2023-08-31T13:43:01;19.70;99.90
7588;DHT22;3835;48.850;8.938;2023-08-31T13:45:29;19.70;99.90
7588;DHT22;3835;48.850;8.938;2023-08-31T13:47:56;19.50;99.90
7588;DHT22;3835;48.850;8.938;2023-08-31T13:50:23;19.40;99.90
7588;DHT22;3835;48.850;8.938;2023-08-31T13:52:51;19.00;99.90
7588;DHT22;3835;48.850;8.938;2023-08-31T13:55:18;18.70;99.90
7588;DHT22;3835;48.850;8.938;2023-08-31T13:57:45;18.50;99.90
7588;DHT22;3835;48.850;8.938;2023-08-31T14:00:13;18.20;99.90
7588;DHT22;3835;48.850;8.938;2023-08-31T14:02:40;17.90;99.90
7588;DHT22;3835;48.850;8.938;2023-08-31T14:05:07;17.70;99.90
7588;DHT22;3835;48.850;8.938;2023-08-31T14:07:35;17.60;99.90
7588;DHT22;3835;48.850;8.938;2023-08-31T14:10:04;17.60;99.90
7588;DHT22;3835;48.850;8.938;2023-08-31T14:12:32;17.60;99.90
7588;DHT22;3835;48.850;8.938;2023-08-31T14:14:59;17.60;99.90
7588;DHT22;3835;48.850;8.938;2023-08-31T14:17:29;17.50;99.90
7588;DHT22;3835;48.850;8.938;2023-08-31T14:19:56;17.70;99.90
7588;DHT22;3835;48.850;8.938;2023-08-31T14:22:23;17.90;99.90
7588;DHT22;3835;48.850;8.938;2023-08-31T14:24:49;18.00;99.90
7588;DHT22;3835;48.850;8.938;2023-08-31T14:27:17;17.90;99.90
7588;DHT22;3835;48.850;8.938;2023-08-31T14:29:44;17.90;99.90
7588;DHT22;3835;48.850;8.938;2023-08-31T14:32:11;17.90;99.90
7588;DHT22;3835;48.850;8.938;2023-08-31T14:34:38;17.80;99.90
7588;DHT22;3835;48.850;8.938;2023-08-31T14:37:05;17.70;99.90
7588;DHT22;3835;48.850;8.938;2023-08-31T14:39:31;17.60;99.90
7588;DHT22;3835;48.850;8.938;2023-08-31T14:41:58;17.60;99.90
7588;DHT22;3835;48.850;8.938;2023-08-31T14:44:26;17.70;99.90
7588;DHT22;3835;48.850;8.938;2023-08-31T14:46:53;17.70;99.90
7588;DHT22;3835;48.850;8.938;2023-08-31T14:49:22;17.80;99.90
7588;DHT22;3835;48.850;8.938;2023-08-31T14:51:50;18.00;99.90
7588;DHT22;3835;48.850;8.938;2023-08-31T14:54:17;18.20;99.90
7588;DHT22;3835;48.850;8.938;2023-08-31T14:56:44;18.50;99.90
7588;DHT22;3835;48.850;8.938;2023-08-31T14:59:10;18.70;99.90
7588;DHT22;3835;48.850;8.938;2023-08-31T15:01:38;19.00;99.90
7588;DHT22;3835;48.850;8.938;2023-08-31T15:04:05;19.20;99.90
7588;DHT22;3835;48.850;8.938;2023-08-31T15:06:32;19.20;99.90
7588;DHT22;3835;48.850;8.938;2023-08-31T15:08:59;19.20;99.90
7588;DHT22;3835;48.850;8.938;2023-08-31T15:11:26;18.80;99.90
7588;DHT22;3835;48.850;8.938;2023-08-31T15:13:53;18.50;99.90
7588;DHT22;3835;48.850;8.938;2023-08-31T15:16:20;18.30;99.90
7588;DHT22;3835;48.850;8.938;2023-08-31T15:18:48;18.20;99.90
7588;DHT22;3835;48.850;8.938;2023-08-31T15:21:15;18.10;99.90
7588;DHT22;3835;48.850;8.938;2023-08-31T15:23:43;18.10;99.90
7588;DHT22;3835;48.850;8.938;2023-08-31T15:26:10;18.00;99.90
7588;DHT22;3835;48.850;8.938;2023-08-31T15:28:38;17.90;99.90
7588;DHT22;3835;48.850;8.938;2023-08-31T15:31:05;17.70;99.90
7588;DHT22;3835;48.850;8.938;2023-08-31T15:33:32;17.70;99.90
7588;DHT22;3835;48.850;8.938;2023-08-31T15:36:05;17.50;99.90
7588;DHT22;3835;48.850;8.938;2023-08-31T15:38:33;17.40;99.90
7588;DHT22;3835;48.850;8.938;2023-08-31T15:41:01;17.30;99.90
7588;DHT22;3835;48.850;8.938;2023-08-31T15:43:30;17.10;99.90
7588;DHT22;3835;48.850;8.938;2023-08-31T15:45:57;17.00;99.90
7588;DHT22;3835;48.850;8.938;2023-08-31T15:48:24;16.80;99.90
7588;DHT22;3835;48.850;8.938;2023-08-31T15:50:52;16.70;99.90
7588;DHT22;3835;48.850;8.938;2023-08-31T15:53:22;16.50;99.90
7588;DHT22;3835;48.850;8.938;2023-08-31T15:55:51;16.50;99.90
7588;DHT22;3835;48.850;8.938;2023-08-31T15:58:19;16.50;99.90
7588;DHT22;3835;48.850;8.938;2023-08-31T16:00:48;16.50;99.90
7588;DHT22;3835;48.850;8.938;2023-08-31T16:03:16;16.60;99.90
7588;DHT22;3835;48.850;8.938;2023-08-31T16:05:48;16.70;99.90
7588;DHT22;3835;48.850;8.938;2023-08-31T16:08:16;16.90;99.90
7588;DHT22;3835;48.850;8.938;2023-08-31T16:10:46;17.10;99.90
7588;DHT22;3835;48.850;8.938;2023-08-31T16:13:14;17.20;99.90